createdAt,value
2019-01-03T08:39:04.298Z,103585.47
2019-01-03T08:41:58.214Z,103585.83
2019-01-03T08:44:48.449Z,103593.59
2019-01-03T08:47:36.134Z,103585.91
2019-01-03T08:50:39.226Z,103589.80
2019-01-03T08:53:25.525Z,103579.02
2019-01-03T08:56:11.669Z,103579.44
2019-01-03T08:59:08.054Z,103585.05
2019-01-03T09:01:56.095Z,103579.03
2019-01-03T09:04:42.283Z,103589.37
2019-01-03T09:07:32.276Z,103591.08
2019-01-03T09:10:19.082Z,103593.23
2019-01-03T09:13:09.686Z,103603.99
2019-01-03T09:15:56.333Z,103591.88
2019-01-03T09:18:49.004Z,103591.00
2019-01-03T09:21:42.654Z,103592.27
2019-01-03T09:24:38.430Z,103596.66
2019-01-03T09:27:25.111Z,103603.47
2019-01-03T09:30:15.532Z,103615.53
2019-01-03T09:33:00.658Z,103613.42
2019-01-03T09:35:47.618Z,103613.41
2019-01-03T09:38:41.302Z,103605.63
2019-01-03T09:41:28.202Z,103607.14
2019-01-03T09:44:13.894Z,103606.10
2019-01-03T09:46:43.292Z,103610.56
2019-01-03T09:49:11.980Z,103604.17
2019-01-03T09:51:40.565Z,103607.05
2019-01-03T09:54:08.032Z,103606.56
2019-01-03T09:56:35.373Z,103599.95
2019-01-03T09:59:03.873Z,103606.92
2019-01-03T10:01:30.882Z,103598.27
2019-01-03T10:03:59.279Z,103600.61
2019-01-03T10:06:26.672Z,103599.47
2019-01-03T10:08:53.699Z,103607.20
2019-01-03T10:11:21.962Z,103607.55
2019-01-03T10:13:50.743Z,103613.53
2019-01-03T10:16:19.221Z,103618.56
2019-01-03T10:18:46.782Z,103607.92
2019-01-03T10:21:14.653Z,103601.22
2019-01-03T10:23:43.027Z,103597.05
2019-01-03T10:26:10.061Z,103603.13
2019-01-03T10:28:37.478Z,103598.45
2019-01-03T10:31:04.789Z,103602.22
2019-01-03T10:33:31.810Z,103607.20
2019-01-03T10:35:59.699Z,103606.94
2019-01-03T10:38:26.737Z,103609.68
2019-01-03T10:40:55.431Z,103617.09
2019-01-03T10:43:23.604Z,103612.27
2019-01-03T10:45:51.879Z,103619.12
2019-01-03T10:48:19.549Z,103620.53
2019-01-03T10:50:47.613Z,103618.92
2019-01-03T10:53:15.007Z,103621.36
2019-01-03T10:55:42.321Z,103630.20
2019-01-03T10:58:10.006Z,103628.95
2019-01-03T11:00:39.178Z,103619.27
2019-01-03T11:03:07.250Z,103624.04
2019-01-03T11:05:34.858Z,103626.48
2019-01-03T11:08:04.318Z,103625.88
2019-01-03T11:10:32.746Z,103627.94
2019-01-03T11:13:00.150Z,103626.68
2019-01-03T11:15:27.507Z,103617.39
2019-01-03T11:17:55.174Z,103609.84
2019-01-03T11:20:23.645Z,103601.99
2019-01-03T11:22:51.350Z,103604.29
2019-01-03T11:25:19.079Z,103605.09
2019-01-03T11:27:46.427Z,103597.89
2019-01-03T11:30:15.111Z,103589.20
2019-01-03T11:32:42.466Z,103587.51
2019-01-03T11:35:10.138Z,103586.46
2019-01-03T11:37:38.298Z,103588.05
2019-01-03T11:40:05.862Z,103590.79
2019-01-03T11:42:33.930Z,103585.27
2019-01-03T11:45:01.914Z,103586.92
2019-01-03T11:47:29.870Z,103587.95
2019-01-03T11:49:56.914Z,103582.75
2019-01-03T11:52:24.473Z,103577.11
2019-01-03T11:54:52.034Z,103583.36
2019-01-03T11:57:19.698Z,103585.94
2019-01-03T11:59:46.773Z,103579.77
2019-01-03T12:02:15.122Z,103580.13
2019-01-03T12:04:43.526Z,103582.45
2019-01-03T12:07:13.015Z,103575.73
2019-01-03T12:09:40.977Z,103578.41
2019-01-03T12:12:08.633Z,103564.40
2019-01-03T12:14:36.951Z,103565.56
2019-01-03T12:17:04.309Z,103570.95
2019-01-03T12:19:31.622Z,103569.52
2019-01-03T12:21:58.650Z,103573.27
2019-01-03T12:24:30.667Z,103570.51
2019-01-03T12:26:57.782Z,103576.72
2019-01-03T12:29:26.466Z,103579.21
2019-01-03T12:31:53.488Z,103585.23
2019-01-03T12:34:20.871Z,103582.02
2019-01-03T12:36:47.886Z,103588.64
2019-01-03T12:39:15.383Z,103596.20
2019-01-03T12:41:42.728Z,103595.30
2019-01-03T12:44:10.798Z,103589.73
2019-01-03T12:46:38.143Z,103585.78
2019-01-03T12:49:05.196Z,103576.16
2019-01-03T12:51:32.555Z,103574.20
2019-01-03T12:54:00.215Z,103574.91
2019-01-03T12:56:27.875Z,103571.64
2019-01-03T12:58:55.252Z,103568.55
2019-01-03T13:01:22.586Z,103568.63
2019-01-03T13:03:50.267Z,103571.81
2019-01-03T13:06:21.041Z,103563.06
2019-01-03T13:08:47.309Z,103567.40
2019-01-03T13:11:20.255Z,103561.86
2019-01-03T13:13:47.753Z,103557.77
2019-01-03T13:16:18.491Z,103549.83
2019-01-03T13:18:46.154Z,103557.97
2019-01-03T13:21:13.508Z,103559.61
2019-01-03T13:23:40.662Z,103559.69
2019-01-03T13:26:08.320Z,103552.71
2019-01-03T13:28:36.374Z,103555.05
2019-01-03T13:31:03.687Z,103556.66
2019-01-03T13:33:32.433Z,103552.75
2019-01-03T13:35:59.463Z,103549.29
2019-01-03T13:38:27.169Z,103553.42
2019-01-03T13:40:56.335Z,103543.00
2019-01-03T13:43:23.409Z,103547.88
2019-01-03T13:45:50.961Z,103548.90
2019-01-03T13:48:19.117Z,103558.30
2019-01-03T13:50:46.158Z,103562.75
2019-01-03T13:53:13.623Z,103560.83
2019-01-03T13:55:42.693Z,103562.11
2019-01-03T13:58:12.169Z,103560.25
2019-01-03T14:00:39.723Z,103562.42
2019-01-03T14:03:15.937Z,103576.63
2019-01-03T14:05:44.010Z,103570.29
2019-01-03T14:08:13.012Z,103578.11
2019-01-03T14:10:40.873Z,103578.16
2019-01-03T14:13:08.771Z,103589.02
2019-01-03T14:15:36.093Z,103586.84
2019-01-03T14:18:03.125Z,103591.73
2019-01-03T14:20:30.469Z,103593.39
2019-01-03T14:22:59.279Z,103594.55
2019-01-03T14:25:27.045Z,103595.31
2019-01-03T14:27:55.979Z,103602.34
2019-01-03T14:30:23.006Z,103601.91
2019-01-03T14:32:50.754Z,103601.95
2019-01-03T14:35:18.411Z,103604.88
2019-01-03T14:37:46.178Z,103604.50
2019-01-03T14:40:17.583Z,103608.50
2019-01-03T14:42:44.599Z,103615.94
2019-01-03T14:45:13.146Z,103612.38
2019-01-03T14:47:44.045Z,103612.07
2019-01-03T14:50:12.486Z,103610.22
2019-01-03T14:52:40.230Z,103620.33
2019-01-03T14:55:11.095Z,103622.55
2019-01-03T14:57:39.380Z,103621.17
2019-01-03T15:00:11.730Z,103619.94
2019-01-03T15:02:40.022Z,103624.25
2019-01-03T15:05:07.354Z,103629.55
2019-01-03T15:07:37.532Z,103624.28
2019-01-03T15:10:05.535Z,103626.91
2019-01-03T15:12:33.327Z,103629.54
2019-01-03T15:15:01.485Z,103628.19
2019-01-03T15:17:29.564Z,103628.14
2019-01-03T15:19:59.813Z,103636.05
2019-01-03T15:22:27.224Z,103641.53
2019-01-03T15:24:55.433Z,103655.09
2019-01-03T15:27:25.806Z,103659.75
2019-01-03T15:29:53.378Z,103665.38
2019-01-03T15:32:23.294Z,103660.16
2019-01-03T15:34:50.959Z,103657.64
2019-01-03T15:37:18.559Z,103660.27
2019-01-03T15:39:47.308Z,103657.69
2019-01-03T15:42:16.734Z,103665.05
2019-01-03T15:44:43.787Z,103661.19
2019-01-03T15:47:11.148Z,103659.47
2019-01-03T15:49:38.778Z,103662.05
2019-01-03T15:52:07.168Z,103668.11
2019-01-03T15:54:34.505Z,103671.11
2019-01-03T15:57:01.763Z,103675.87
2019-01-03T15:59:29.417Z,103674.61
2019-01-03T16:01:57.382Z,103684.94
2019-01-03T16:04:25.765Z,103670.28
2019-01-03T16:06:53.233Z,103680.21
2019-01-03T16:09:20.517Z,103679.80
2019-01-03T16:11:47.923Z,103672.89
2019-01-03T16:14:15.322Z,103666.00
2019-01-03T16:16:42.758Z,103674.19
2019-01-03T16:19:11.526Z,103671.19
2019-01-03T16:21:39.232Z,103667.31
2019-01-03T16:24:07.360Z,103666.44
2019-01-03T16:26:35.231Z,103665.59
2019-01-03T16:29:03.655Z,103668.62
2019-01-03T16:31:30.671Z,103662.14
2019-01-03T16:33:58.010Z,103657.42
2019-01-03T16:36:25.673Z,103664.71
2019-01-03T16:38:53.039Z,103668.60
2019-01-03T16:41:20.128Z,103669.45
2019-01-03T16:43:48.190Z,103666.46
2019-01-03T16:46:16.631Z,103661.71
2019-01-03T16:48:46.033Z,103663.42
2019-01-03T16:51:13.442Z,103659.58
2019-01-03T16:53:43.195Z,103664.73
2019-01-03T16:56:11.267Z,103663.84
2019-01-03T16:58:40.462Z,103668.19
2019-01-03T17:01:07.817Z,103669.03
2019-01-03T17:03:36.506Z,103660.41
2019-01-03T17:06:05.291Z,103663.86
2019-01-03T17:08:33.363Z,103666.45
2019-01-03T17:11:00.719Z,103661.72
2019-01-03T17:13:29.023Z,103661.30
2019-01-03T17:16:02.806Z,103658.70
2019-01-03T17:18:32.322Z,103659.13
2019-01-03T17:20:59.668Z,103659.56
2019-01-03T17:23:27.742Z,103660.41
2019-01-03T17:25:54.778Z,103658.70
2019-01-03T17:28:22.642Z,103655.23
2019-01-03T17:30:49.658Z,103648.78
2019-01-03T17:33:20.744Z,103650.93
2019-01-03T17:35:47.981Z,103648.35
2019-01-03T17:38:15.646Z,103652.21
2019-01-03T17:40:46.092Z,103645.74
2019-01-03T17:43:13.137Z,103639.30
2019-01-03T17:45:40.474Z,103636.29
2019-01-03T17:48:09.790Z,103641.03
2019-01-03T17:50:38.087Z,103650.91
2019-01-03T17:53:05.117Z,103656.09
2019-01-03T17:55:33.505Z,103658.23
2019-01-03T17:58:02.678Z,103664.71
2019-01-03T18:00:30.353Z,103660.39
2019-01-03T18:02:57.400Z,103669.82
2019-01-03T18:05:24.882Z,103683.13
2019-01-03T18:07:51.905Z,103671.13
2019-01-03T18:10:19.811Z,103679.31
2019-01-03T18:12:46.846Z,103678.88
2019-01-03T18:15:14.976Z,103684.50
2019-01-03T18:17:42.942Z,103688.78
2019-01-03T18:20:15.315Z,103681.42
2019-01-03T18:22:42.979Z,103686.20
2019-01-03T18:25:11.109Z,103689.20
2019-01-03T18:27:39.061Z,103688.36
2019-01-03T18:30:08.124Z,103684.91
2019-01-03T18:32:35.881Z,103687.47
2019-01-03T18:35:04.564Z,103687.01
2019-01-03T18:37:32.323Z,103682.70
2019-01-03T18:40:00.226Z,103685.75
2019-01-03T18:42:28.815Z,103674.98
2019-01-03T18:44:56.746Z,103671.55
2019-01-03T18:47:24.099Z,103673.70
2019-01-03T18:49:51.476Z,103674.51
2019-01-03T18:52:18.863Z,103682.25
2019-01-03T18:54:46.473Z,103679.67
2019-01-03T18:57:13.867Z,103690.05
2019-01-03T18:59:41.237Z,103681.84
2019-01-03T19:02:10.387Z,103677.16
2019-01-03T19:04:39.462Z,103679.70
2019-01-03T19:07:07.134Z,103675.41
2019-01-03T19:09:34.485Z,103673.69
2019-01-03T19:12:01.862Z,103672.86
2019-01-03T19:14:29.000Z,103682.69
2019-01-03T19:16:56.378Z,103685.74
2019-01-03T19:19:23.447Z,103676.25
2019-01-03T19:21:51.163Z,103677.56
2019-01-03T19:24:18.821Z,103671.54
2019-01-03T19:26:46.236Z,103674.56
2019-01-03T19:29:14.967Z,103675.84
2019-01-03T19:31:42.311Z,103674.55
2019-01-03T19:34:10.307Z,103664.25
2019-01-03T19:36:47.627Z,103668.13
2019-01-03T19:39:14.670Z,103670.25
2019-01-03T19:41:43.102Z,103674.05
2019-01-03T19:44:10.278Z,103669.41
2019-01-03T19:46:38.378Z,103671.98
2019-01-03T19:49:05.618Z,103677.97
2019-01-03T19:51:35.177Z,103672.42
2019-01-03T19:54:02.574Z,103671.11
2019-01-03T19:56:30.198Z,103664.63
2019-01-03T19:58:57.304Z,103662.10
2019-01-03T20:01:25.737Z,103663.36
2019-01-03T20:03:53.899Z,103672.88
2019-01-03T20:06:20.926Z,103672.88
2019-01-03T20:08:48.606Z,103659.52
2019-01-03T20:11:15.956Z,103654.77
2019-01-03T20:13:47.848Z,103656.97
2019-01-03T20:16:15.796Z,103653.52
2019-01-03T20:18:43.458Z,103648.80
2019-01-03T20:21:10.926Z,103653.09
2019-01-03T20:23:37.959Z,103656.55
2019-01-03T20:26:05.074Z,103650.52
2019-01-03T20:28:32.984Z,103645.78
2019-01-03T20:31:00.455Z,103644.05
2019-01-03T20:33:28.945Z,103641.04
2019-01-03T20:35:56.671Z,103638.89
2019-01-03T20:38:23.705Z,103634.13
2019-01-03T20:40:50.725Z,103626.83
2019-01-03T20:43:19.151Z,103631.98
2019-01-03T20:45:47.935Z,103629.82
2019-01-03T20:48:15.325Z,103628.11
2019-01-03T20:50:42.655Z,103618.63
2019-01-03T20:53:09.998Z,103612.59
2019-01-03T20:55:38.991Z,103615.57
2019-01-03T20:58:08.308Z,103600.98
2019-01-03T21:00:35.960Z,103606.16
2019-01-03T21:03:04.527Z,103614.75
2019-01-03T21:05:31.571Z,103611.72
2019-01-03T21:07:59.351Z,103615.61
2019-01-03T21:10:26.902Z,103616.02
2019-01-03T21:12:54.463Z,103612.59
2019-01-03T21:15:22.432Z,103614.27
2019-01-03T21:17:49.457Z,103596.69
2019-01-03T21:20:18.679Z,103593.25
2019-01-03T21:22:47.466Z,103583.77
2019-01-03T21:25:14.710Z,103582.47
2019-01-03T21:27:42.174Z,103576.03
2019-01-03T21:30:12.499Z,103575.16
2019-01-03T21:32:40.077Z,103563.95
2019-01-03T21:35:07.434Z,103566.55
2019-01-03T21:37:34.729Z,103560.09
2019-01-03T21:40:03.766Z,103567.41
2019-01-03T21:42:32.034Z,103569.11
2019-01-03T21:44:59.439Z,103566.11
2019-01-03T21:47:27.564Z,103567.41
2019-01-03T21:49:55.981Z,103564.82
2019-01-03T21:52:23.913Z,103566.13
2019-01-03T21:54:51.039Z,103564.39
2019-01-03T21:57:20.469Z,103577.72
2019-01-03T21:59:47.517Z,103579.89
2019-01-03T22:02:14.932Z,103579.88
2019-01-03T22:04:42.729Z,103575.59
2019-01-03T22:07:10.494Z,103571.71
2019-01-03T22:09:37.847Z,103569.56
2019-01-03T22:12:05.931Z,103572.16
2019-01-03T22:14:33.373Z,103582.04
2019-01-03T22:17:00.720Z,103579.89
2019-01-03T22:19:29.224Z,103573.02
2019-01-03T22:21:56.972Z,103571.71
2019-01-03T22:24:23.981Z,103570.85
2019-01-03T22:26:51.274Z,103568.25
2019-01-03T22:29:18.358Z,103557.91
2019-01-03T22:31:45.675Z,103556.59
2019-01-03T22:34:13.044Z,103553.19
2019-01-03T22:36:41.042Z,103553.16
2019-01-03T22:39:08.063Z,103551.42
2019-01-03T22:41:35.726Z,103554.02
2019-01-03T22:44:03.064Z,103541.11
2019-01-03T22:46:31.851Z,103528.20
2019-01-03T22:48:59.893Z,103521.72
2019-01-03T22:51:27.603Z,103517.03
2019-01-03T22:53:56.082Z,103515.71
2019-01-03T22:56:24.038Z,103520.03
2019-01-03T22:58:51.056Z,103519.61
2019-01-03T23:01:18.786Z,103514.00
2019-01-03T23:03:45.802Z,103513.14
2019-01-03T23:06:13.869Z,103506.71
2019-01-03T23:08:46.026Z,103518.30
2019-01-03T23:11:13.035Z,103504.09
2019-01-03T23:13:40.078Z,103494.19
2019-01-03T23:16:07.386Z,103487.31
2019-01-03T23:18:34.416Z,103487.72
2019-01-03T23:21:05.874Z,103479.05
2019-01-03T23:23:33.126Z,103482.61
2019-01-03T23:26:06.317Z,103484.25
2019-01-03T23:28:34.207Z,103471.76
2019-01-03T23:31:01.539Z,103478.67
2019-01-03T23:33:29.599Z,103471.30
2019-01-03T23:35:57.369Z,103472.14
2019-01-03T23:38:25.547Z,103476.38
2019-01-03T23:40:52.916Z,103472.98
2019-01-03T23:43:21.179Z,103468.67
2019-01-03T23:45:48.531Z,103474.25
2019-01-03T23:48:16.398Z,103472.02
2019-01-03T23:50:44.161Z,103484.95
2019-01-03T23:53:12.438Z,103478.92
2019-01-03T23:55:43.027Z,103476.32
2019-01-03T23:58:10.810Z,103479.75
